Time;durP1;ratioP1;P1;durP2;ratioP2;P2;SDS_P1;SDS_P2;PMS_P1;PMS_P2;Temp;Humidity;BMP_temperature;BMP_pressure;BME280_temperature;BME280_humidity;BME280_pressure;Samples;Min_cycle;Max_cycle;Signal;HPM_P1;HPM_P2
2023/10/15 00:01:20;;;;;;;2.70;1.00;;;13.10;94.60;;;;;;5050853;28;20224;-71
2023/10/15 00:03:47;;;;;;;2.33;1.00;;;13.10;94.70;;;;;;5049014;28;20196;-72
2023/10/15 00:06:15;;;;;;;6.60;1.20;;;13.10;94.80;;;;;;5076969;28;20209;-73
2023/10/15 00:08:42;;;;;;;2.93;1.03;;;13.00;94.70;;;;;;5049058;28;20216;-72
2023/10/15 00:11:13;;;;;;;2.93;1.30;;;13.00;94.80;;;;;;5050845;28;20213;-73
2023/10/15 00:13:41;;;;;;;3.20;1.20;;;13.00;94.80;;;;;;5045290;28;20746;-72
2023/10/15 00:16:08;;;;;;;2.57;1.30;;;13.00;94.80;;;;;;5047372;28;20219;-71
2023/10/15 00:18:36;;;;;;;1.37;1.00;;;13.00;94.90;;;;;;5047393;28;20261;-72
2023/10/15 00:21:11;;;;;;;2.13;0.93;;;13.00;94.90;;;;;;5049837;28;20651;-72
2023/10/15 00:23:42;;;;;;;5.60;1.40;;;13.00;95.00;;;;;;5040082;28;20196;-72
2023/10/15 00:26:11;;;;;;;2.10;1.17;;;12.90;95.00;;;;;;5060190;28;20705;-72
2023/10/15 00:28:39;;;;;;;2.70;1.13;;;12.90;95.00;;;;;;5068272;28;20215;-72
2023/10/15 00:31:09;;;;;;;2.07;1.03;;;12.90;95.10;;;;;;5050507;28;20221;-72
2023/10/15 00:33:37;;;;;;;1.30;0.90;;;12.90;95.10;;;;;;5050890;28;20221;-72
2023/10/15 00:36:05;;;;;;;3.07;1.00;;;12.90;95.10;;;;;;5040264;28;20269;-72
2023/10/15 00:38:36;;;;;;;3.20;1.17;;;12.90;95.50;;;;;;5076409;28;20206;-72
2023/10/15 00:41:08;;;;;;;2.20;0.80;;;12.90;95.20;;;;;;5046655;28;20248;-72
2023/10/15 00:43:36;;;;;;;3.90;1.00;;;12.90;95.20;;;;;;5045049;28;20235;-72
2023/10/15 00:46:09;;;;;;;1.90;0.90;;;12.90;95.60;;;;;;5042441;28;20272;-72
2023/10/15 00:48:37;;;;;;;1.57;0.90;;;12.80;95.20;;;;;;5045839;28;20212;-72
2023/10/15 00:51:09;;;;;;;2.60;0.93;;;12.80;95.20;;;;;;5050550;28;20231;-71
2023/10/15 00:53:42;;;;;;;1.70;0.70;;;12.80;95.30;;;;;;5042662;28;20276;-72
2023/10/15 00:56:11;;;;;;;4.60;1.20;;;12.70;95.30;;;;;;5038725;28;20235;-72
2023/10/15 00:58:53;;;;;;;2.00;1.23;;;12.70;95.40;;;;;;5048523;28;20483;-72
2023/10/15 01:01:22;;;;;;;2.17;1.00;;;12.70;95.60;;;;;;5081283;28;20207;-71
2023/10/15 01:03:52;;;;;;;3.33;1.23;;;12.60;95.60;;;;;;5054327;28;20195;-72
2023/10/15 01:06:29;;;;;;;4.33;1.30;;;12.70;95.60;;;;;;5081691;28;20209;-72
2023/10/15 01:08:58;;;;;;;1.33;0.80;;;12.60;95.60;;;;;;5046060;28;20217;-71
2023/10/15 01:11:29;;;;;;;1.17;0.90;;;12.60;95.60;;;;;;5040812;28;20200;-71
2023/10/15 01:13:56;;;;;;;3.70;1.40;;;12.50;95.70;;;;;;5045885;28;20603;-72
2023/10/15 01:16:27;;;;;;;1.43;0.93;;;12.60;95.80;;;;;;5048907;28;20245;-73
2023/10/15 01:19:05;;;;;;;1.67;1.00;;;12.60;95.80;;;;;;5042416;28;20202;-73
2023/10/15 01:21:32;;;;;;;2.40;0.93;;;12.60;95.80;;;;;;5049561;28;20192;-73
2023/10/15 01:24:05;;;;;;;1.47;0.90;;;12.50;95.80;;;;;;5078023;28;20613;-72
2023/10/15 01:26:36;;;;;;;3.23;1.07;;;12.50;95.80;;;;;;5046054;28;20304;-72
2023/10/15 01:29:07;;;;;;;3.90;1.23;;;12.50;95.90;;;;;;5043468;28;20300;-73
2023/10/15 01:31:41;;;;;;;3.00;1.00;;;12.50;96.00;;;;;;5051814;28;20644;-73
2023/10/15 01:34:10;;;;;;;3.57;0.97;;;12.40;96.00;;;;;;5050028;28;20638;-73
2023/10/15 01:36:38;;;;;;;3.13;1.20;;;12.40;96.10;;;;;;5075019;28;20706;-71
2023/10/15 01:39:12;;;;;;;2.10;0.80;;;12.40;96.10;;;;;;5052125;28;20283;-72
2023/10/15 01:41:41;;;;;;;2.73;1.03;;;12.40;96.20;;;;;;5046617;28;20327;-73
2023/10/15 01:44:10;;;;;;;1.80;0.90;;;12.40;96.20;;;;;;5046016;28;20194;-72
2023/10/15 01:46:45;;;;;;;1.70;1.00;;;12.40;96.20;;;;;;5069869;28;20229;-72
2023/10/15 01:49:18;;;;;;;1.40;0.80;;;12.40;96.20;;;;;;5048957;28;20219;-72
2023/10/15 01:51:45;;;;;;;2.37;1.20;;;12.40;96.20;;;;;;5046904;28;20219;-72
2023/10/15 01:54:13;;;;;;;2.10;0.80;;;12.40;96.10;;;;;;5042583;28;20204;-71
2023/10/15 01:56:44;;;;;;;3.77;1.10;;;12.40;96.10;;;;;;5049168;28;20275;-73
2023/10/15 01:59:11;;;;;;;2.80;1.20;;;12.40;96.10;;;;;;5058552;28;20200;-70
2023/10/15 02:01:48;;;;;;;2.57;0.83;;;12.40;96.10;;;;;;5055468;28;20199;-72
2023/10/15 02:04:17;;;;;;;2.13;0.90;;;12.30;96.10;;;;;;5049504;28;20744;-73
2023/10/15 02:06:44;;;;;;;1.33;0.97;;;12.30;96.10;;;;;;5052549;28;20194;-72
2023/10/15 02:09:19;;;;;;;3.03;1.33;;;12.40;96.20;;;;;;5060356;28;20312;-72
2023/10/15 02:11:48;;;;;;;4.67;1.17;;;12.40;96.20;;;;;;5077802;28;20208;-72
2023/10/15 02:14:21;;;;;;;2.20;1.10;;;12.40;96.10;;;;;;5059228;28;20196;-72
2023/10/15 02:16:50;;;;;;;1.53;0.93;;;12.30;96.10;;;;;;5053315;28;20199;-71
2023/10/15 02:19:28;;;;;;;2.20;1.03;;;12.30;96.10;;;;;;5081605;28;21098;-72
2023/10/15 02:21:56;;;;;;;2.27;1.00;;;12.30;96.10;;;;;;5053127;28;20200;-72
2023/10/15 02:24:24;;;;;;;1.60;0.87;;;12.30;96.10;;;;;;5050004;28;20555;-72
2023/10/15 02:26:52;;;;;;;1.90;1.30;;;12.30;96.10;;;;;;5049988;28;20200;-72
2023/10/15 02:29:34;;;;;;;2.97;0.90;;;12.30;96.10;;;;;;5047220;28;20310;-72
2023/10/15 02:32:07;;;;;;;2.63;1.20;;;12.30;96.10;;;;;;5070300;28;20210;-73
2023/10/15 02:34:40;;;;;;;2.87;1.33;;;12.30;96.10;;;;;;5047189;28;20274;-72
2023/10/15 02:37:10;;;;;;;1.30;0.90;;;12.30;96.10;;;;;;5048320;28;20200;-72
2023/10/15 02:39:44;;;;;;;5.57;1.17;;;12.30;96.10;;;;;;5079445;28;20211;-72
2023/10/15 02:42:15;;;;;;;3.03;1.00;;;12.20;96.10;;;;;;5078072;28;20248;-71
2023/10/15 02:44:42;;;;;;;3.70;0.80;;;12.20;96.10;;;;;;5052745;28;20206;-72
2023/10/15 02:47:19;;;;;;;2.27;1.20;;;12.20;96.10;;;;;;5084789;28;20253;-73
2023/10/15 02:49:53;;;;;;;3.43;1.17;;;12.20;96.10;;;;;;5049608;28;20232;-71
2023/10/15 02:52:23;;;;;;;1.43;0.80;;;12.20;96.20;;;;;;5051127;28;20198;-73
2023/10/15 02:54:50;;;;;;;1.17;0.70;;;12.20;96.20;;;;;;5046858;28;20195;-73
2023/10/15 02:57:20;;;;;;;2.83;1.10;;;12.20;96.20;;;;;;5049601;28;20217;-72
2023/10/15 02:59:52;;;;;;;4.07;1.30;;;12.20;96.20;;;;;;5045390;28;20247;-72
2023/10/15 03:02:19;;;;;;;2.77;1.13;;;12.20;96.20;;;;;;5048352;28;20206;-72
2023/10/15 03:04:51;;;;;;;1.90;0.97;;;12.10;96.20;;;;;;5048002;28;20204;-71
2023/10/15 03:07:19;;;;;;;1.10;0.80;;;12.10;96.20;;;;;;5049623;28;20275;-72
2023/10/15 03:09:51;;;;;;;3.30;1.10;;;12.20;96.30;;;;;;5078085;28;20254;-72
2023/10/15 03:12:19;;;;;;;5.07;1.00;;;12.20;96.20;;;;;;5050257;28;20194;-71
2023/10/15 03:14:47;;;;;;;1.17;0.90;;;12.20;96.20;;;;;;5050269;28;20795;-72
2023/10/15 03:17:24;;;;;;;2.27;1.13;;;12.20;96.20;;;;;;5053809;28;20204;-73
2023/10/15 03:19:52;;;;;;;4.80;1.47;;;12.20;96.20;;;;;;5044636;28;20329;-72
2023/10/15 03:22:23;;;;;;;1.73;0.90;;;12.10;96.20;;;;;;5045717;28;20588;-73
2023/10/15 03:24:53;;;;;;;2.57;1.00;;;12.10;96.20;;;;;;5052701;28;20195;-71
2023/10/15 03:27:26;;;;;;;1.73;0.97;;;12.10;96.30;;;;;;5049600;28;20194;-71
2023/10/15 03:29:56;;;;;;;2.77;1.00;;;12.10;96.30;;;;;;5045080;28;20656;-71
2023/10/15 03:32:27;;;;;;;2.47;1.07;;;12.10;96.30;;;;;;5044095;28;20540;-71
2023/10/15 03:34:59;;;;;;;3.67;1.20;;;12.10;96.30;;;;;;5083775;28;20281;-72
2023/10/15 03:37:27;;;;;;;2.30;0.90;;;12.10;96.30;;;;;;5050109;28;20204;-72
2023/10/15 03:39:54;;;;;;;2.30;0.90;;;12.00;96.30;;;;;;5047133;28;20245;-72
2023/10/15 03:42:27;;;;;;;2.83;1.07;;;12.00;96.30;;;;;;5044243;28;20653;-72
2023/10/15 03:44:59;;;;;;;1.33;0.90;;;12.00;96.40;;;;;;5048022;28;20552;-72
2023/10/15 03:47:26;;;;;;;1.83;1.00;;;12.00;96.40;;;;;;5045546;28;20690;-72
2023/10/15 03:49:55;;;;;;;2.87;1.00;;;12.00;96.40;;;;;;5045415;28;20309;-72
2023/10/15 03:52:23;;;;;;;1.57;0.80;;;12.00;96.40;;;;;;5056248;28;20554;-71
2023/10/15 03:54:51;;;;;;;1.33;0.80;;;12.00;96.40;;;;;;5039664;28;20199;-72
2023/10/15 03:57:22;;;;;;;2.50;0.80;;;12.00;96.40;;;;;;5047812;28;20237;-72
2023/10/15 03:59:52;;;;;;;1.50;0.80;;;12.00;96.40;;;;;;5055472;28;20229;-72
2023/10/15 04:02:25;;;;;;;1.33;0.80;;;12.00;96.40;;;;;;5045725;28;20198;-71
2023/10/15 04:05:00;;;;;;;1.33;0.80;;;12.00;96.30;;;;;;5074761;28;20210;-71
2023/10/15 04:07:30;;;;;;;2.73;0.90;;;12.00;96.40;;;;;;5050321;28;20589;-72
2023/10/15 04:10:03;;;;;;;3.73;0.90;;;12.00;96.40;;;;;;5051101;28;20210;-72
2023/10/15 04:12:34;;;;;;;0.60;0.60;;;12.00;96.40;;;;;;5053001;28;20203;-72
2023/10/15 04:15:12;;;;;;;1.37;0.63;;;12.00;96.40;;;;;;5051236;28;20198;-72
2023/10/15 04:17:39;;;;;;;2.13;1.00;;;12.10;96.40;;;;;;5049494;28;20195;-72
2023/10/15 04:20:07;;;;;;;1.83;0.80;;;12.10;96.40;;;;;;5041527;28;20278;-73
2023/10/15 04:22:36;;;;;;;1.57;0.90;;;12.10;96.50;;;;;;5048215;28;20539;-73
2023/10/15 04:25:06;;;;;;;1.07;0.63;;;12.00;96.40;;;;;;5044481;28;20214;-73
2023/10/15 04:27:34;;;;;;;1.03;0.60;;;12.00;96.40;;;;;;5047209;28;20197;-72
2023/10/15 04:30:03;;;;;;;2.67;0.90;;;12.10;96.50;;;;;;5048861;28;20211;-72
2023/10/15 04:32:45;;;;;;;2.43;1.10;;;12.10;96.40;;;;;;5043298;28;20673;-73
2023/10/15 04:35:15;;;;;;;2.60;0.83;;;12.10;96.40;;;;;;5048910;28;20205;-72
2023/10/15 04:37:44;;;;;;;1.43;0.80;;;12.10;96.40;;;;;;5047193;28;20195;-72
2023/10/15 04:40:12;;;;;;;2.30;0.90;;;12.00;96.40;;;;;;5072497;28;20210;-72
2023/10/15 04:42:43;;;;;;;2.67;0.97;;;12.00;96.40;;;;;;5076985;28;20218;-72
2023/10/15 04:45:23;;;;;;;3.17;0.90;;;12.00;96.50;;;;;;5048817;28;20208;-72
2023/10/15 04:47:53;;;;;;;1.40;0.70;;;12.00;96.50;;;;;;5049181;28;20230;-72
2023/10/15 04:50:21;;;;;;;2.30;0.70;;;12.00;96.40;;;;;;5050282;28;20241;-72
2023/10/15 04:52:48;;;;;;;3.60;0.90;;;11.90;96.50;;;;;;5071653;28;20202;-71
2023/10/15 04:55:17;;;;;;;1.07;0.83;;;11.90;96.50;;;;;;5039440;28;20219;-72
2023/10/15 04:57:46;;;;;;;2.93;1.07;;;11.90;96.50;;;;;;5044495;28;20658;-72
2023/10/15 05:00:25;;;;;;;1.63;0.97;;;11.90;96.50;;;;;;5080042;28;20202;-71
2023/10/15 05:02:52;;;;;;;3.00;0.80;;;11.90;96.60;;;;;;5048050;28;20246;-72
2023/10/15 05:05:19;;;;;;;1.67;0.80;;;11.90;96.60;;;;;;5050808;28;20202;-72
2023/10/15 05:07:46;;;;;;;0.97;0.67;;;11.90;96.60;;;;;;5079433;28;20700;-72
2023/10/15 05:10:14;;;;;;;2.00;0.80;;;11.90;96.60;;;;;;5065232;28;20333;-72
2023/10/15 05:12:41;;;;;;;1.60;0.87;;;11.90;96.60;;;;;;5077289;28;20331;-72
2023/10/15 05:15:13;;;;;;;1.87;0.80;;;11.90;96.60;;;;;;5050349;28;20206;-72
2023/10/15 05:17:43;;;;;;;1.33;0.83;;;11.90;96.60;;;;;;5037854;28;20196;-71
2023/10/15 05:20:13;;;;;;;1.07;0.80;;;11.90;96.60;;;;;;5045990;28;20277;-72
2023/10/15 05:22:40;;;;;;;2.90;0.80;;;11.90;96.60;;;;;;5047951;28;20198;-72
2023/10/15 05:25:15;;;;;;;2.70;0.87;;;11.90;96.80;;;;;;5069046;28;20265;-71
2023/10/15 05:27:43;;;;;;;2.73;0.80;;;11.90;96.80;;;;;;5081297;28;20216;-72
2023/10/15 05:30:10;;;;;;;0.90;0.73;;;11.90;96.90;;;;;;5039524;28;20225;-72
2023/10/15 05:32:37;;;;;;;1.77;0.77;;;11.90;97.30;;;;;;5049315;28;20206;-72
2023/10/15 05:35:08;;;;;;;2.83;0.70;;;11.90;97.00;;;;;;5052863;28;20221;-72
2023/10/15 05:37:36;;;;;;;0.80;0.60;;;11.90;97.00;;;;;;5043919;28;20242;-72
2023/10/15 05:40:05;;;;;;;2.07;1.07;;;11.80;97.00;;;;;;5052262;28;20213;-72
2023/10/15 05:42:32;;;;;;;0.77;0.67;;;11.80;97.00;;;;;;5049777;28;20718;-72
2023/10/15 05:45:00;;;;;;;1.43;0.70;;;11.80;97.00;;;;;;5050728;28;20199;-72
2023/10/15 05:47:27;;;;;;;0.97;0.80;;;11.90;97.10;;;;;;5050468;28;20211;-72
2023/10/15 05:49:54;;;;;;;0.70;0.70;;;11.80;97.00;;;;;;5050351;28;20709;-72
2023/10/15 05:52:23;;;;;;;0.93;0.70;;;11.80;97.00;;;;;;5078634;28;20281;-71
2023/10/15 05:54:53;;;;;;;0.77;0.77;;;11.80;97.00;;;;;;5051318;28;20257;-72
2023/10/15 05:57:21;;;;;;;1.83;0.90;;;11.80;97.00;;;;;;5051096;28;20210;-72
2023/10/15 05:59:49;;;;;;;1.53;0.80;;;11.90;97.10;;;;;;5053018;28;20186;-71
2023/10/15 06:02:17;;;;;;;1.00;0.80;;;11.90;97.00;;;;;;5082834;28;20206;-71
2023/10/15 06:04:46;;;;;;;1.33;0.47;;;11.90;97.00;;;;;;5046298;28;20197;-72
2023/10/15 06:07:15;;;;;;;1.27;0.50;;;11.90;97.00;;;;;;5052774;28;20194;-72
2023/10/15 06:09:44;;;;;;;3.13;1.00;;;11.90;97.00;;;;;;5053156;28;20562;-71
2023/10/15 06:12:13;;;;;;;1.30;0.83;;;11.90;97.00;;;;;;5082519;28;20229;-71
2023/10/15 06:14:40;;;;;;;1.63;0.83;;;11.90;96.90;;;;;;5053149;28;20220;-71
2023/10/15 06:17:07;;;;;;;0.83;0.63;;;11.90;96.90;;;;;;5083410;28;20673;-74
2023/10/15 06:19:34;;;;;;;2.23;0.87;;;11.90;96.90;;;;;;5050161;28;20655;-71
2023/10/15 06:22:01;;;;;;;1.33;0.80;;;12.00;97.00;;;;;;5050397;28;20198;-72
2023/10/15 06:24:28;;;;;;;4.67;1.20;;;12.00;96.90;;;;;;5038262;28;20200;-72
2023/10/15 06:26:57;;;;;;;2.23;1.20;;;11.90;96.80;;;;;;5045316;28;20267;-72
2023/10/15 06:29:24;;;;;;;1.83;1.10;;;11.90;96.80;;;;;;5050652;28;20699;-73
2023/10/15 06:31:51;;;;;;;2.10;0.93;;;11.90;96.90;;;;;;5084885;28;20203;-72
2023/10/15 06:34:18;;;;;;;2.00;0.90;;;11.90;96.90;;;;;;5046096;28;20202;-72
2023/10/15 06:36:47;;;;;;;3.93;0.93;;;11.90;97.00;;;;;;5081832;28;20233;-71
2023/10/15 06:39:14;;;;;;;2.33;0.90;;;11.90;97.00;;;;;;5052436;28;20199;-72
2023/10/15 06:41:41;;;;;;;1.47;0.80;;;12.00;97.20;;;;;;5046754;28;20254;-73
2023/10/15 06:44:10;;;;;;;1.63;0.70;;;12.00;97.40;;;;;;5054189;28;20198;-73
2023/10/15 06:46:38;;;;;;;1.97;0.87;;;12.00;97.40;;;;;;5047662;28;20688;-72
2023/10/15 06:49:07;;;;;;;3.20;0.93;;;12.00;97.50;;;;;;5052478;28;20231;-72
2023/10/15 06:51:35;;;;;;;2.47;1.07;;;12.00;97.50;;;;;;5076946;28;20571;-72
2023/10/15 06:54:03;;;;;;;2.30;1.23;;;12.00;97.50;;;;;;5051865;28;20199;-72
2023/10/15 06:56:30;;;;;;;1.37;0.87;;;12.10;97.60;;;;;;5049488;28;20190;-72
2023/10/15 06:58:57;;;;;;;1.70;1.00;;;12.10;97.60;;;;;;5045504;28;20191;-72
2023/10/15 07:01:30;;;;;;;0.83;0.80;;;12.10;97.50;;;;;;5062500;28;20290;-72
2023/10/15 07:03:57;;;;;;;2.03;0.90;;;12.10;97.50;;;;;;5078470;28;20218;-72
2023/10/15 07:06:24;;;;;;;1.10;0.70;;;12.20;97.40;;;;;;5049702;28;20222;-72
2023/10/15 07:08:51;;;;;;;0.77;0.63;;;12.20;97.40;;;;;;5051618;28;20268;-72
2023/10/15 07:11:18;;;;;;;2.23;1.10;;;12.20;97.30;;;;;;5051578;28;20280;-72
2023/10/15 07:13:45;;;;;;;1.67;1.00;;;12.20;97.30;;;;;;5038462;28;20187;-73
2023/10/15 07:16:14;;;;;;;2.63;1.47;;;12.20;97.20;;;;;;5050881;28;20297;-74
2023/10/15 07:18:42;;;;;;;1.87;1.10;;;12.20;97.30;;;;;;5049453;28;20281;-73
2023/10/15 07:21:10;;;;;;;1.83;1.10;;;12.20;97.30;;;;;;5058759;28;20375;-71
2023/10/15 07:23:37;;;;;;;2.70;1.00;;;12.20;97.30;;;;;;5041499;28;20643;-72
2023/10/15 07:26:05;;;;;;;2.70;1.10;;;12.20;97.30;;;;;;5041048;28;20234;-71
2023/10/15 07:28:34;;;;;;;1.43;0.60;;;12.20;97.30;;;;;;5050856;28;20203;-72
2023/10/15 07:31:02;;;;;;;2.00;1.00;;;12.20;97.30;;;;;;5049938;28;20296;-72
2023/10/15 07:33:29;;;;;;;1.23;0.80;;;12.20;97.30;;;;;;5039864;28;20249;-72
2023/10/15 07:35:59;;;;;;;1.83;0.93;;;12.30;97.30;;;;;;5036311;28;20198;-71
2023/10/15 07:38:26;;;;;;;1.63;0.90;;;12.30;97.40;;;;;;5046331;28;20697;-71
2023/10/15 07:40:55;;;;;;;4.50;1.00;;;12.40;97.40;;;;;;5040189;28;20240;-71
2023/10/15 07:43:22;;;;;;;2.33;0.87;;;12.40;97.40;;;;;;5046522;28;20206;-72
2023/10/15 07:45:49;;;;;;;4.73;1.10;;;12.40;97.40;;;;;;5047286;28;20197;-72
2023/10/15 07:48:16;;;;;;;0.87;0.70;;;12.50;97.40;;;;;;5045001;28;20224;-71
2023/10/15 07:50:45;;;;;;;1.67;1.10;;;12.50;97.40;;;;;;5047211;28;20239;-72
2023/10/15 07:53:13;;;;;;;2.53;1.10;;;12.50;97.30;;;;;;5039280;28;20255;-72
2023/10/15 07:55:43;;;;;;;3.17;1.33;;;12.50;97.30;;;;;;5049735;28;20223;-72
2023/10/15 07:58:11;;;;;;;3.10;1.10;;;12.50;97.30;;;;;;5049893;28;20213;-72
2023/10/15 08:00:38;;;;;;;1.03;0.93;;;12.50;97.30;;;;;;5048478;28;20273;-72
2023/10/15 08:03:07;;;;;;;1.63;1.10;;;12.50;97.30;;;;;;5046943;28;20701;-72
2023/10/15 08:05:36;;;;;;;1.50;1.10;;;12.50;97.60;;;;;;5077051;28;20204;-71
2023/10/15 08:08:05;;;;;;;3.10;1.20;;;12.50;97.30;;;;;;5049322;28;20215;-72
2023/10/15 08:10:34;;;;;;;1.60;1.00;;;12.50;97.30;;;;;;5041540;28;20307;-72
2023/10/15 08:13:01;;;;;;;2.30;1.00;;;12.60;97.20;;;;;;5040123;28;20196;-72
2023/10/15 08:15:29;;;;;;;2.77;1.10;;;12.50;97.10;;;;;;5044844;28;20228;-71
2023/10/15 08:17:57;;;;;;;2.53;1.10;;;12.60;97.00;;;;;;5043307;28;20226;-71
2023/10/15 08:20:24;;;;;;;2.07;0.90;;;12.50;97.00;;;;;;5044240;28;20199;-72
2023/10/15 08:22:51;;;;;;;1.50;0.80;;;12.70;97.10;;;;;;5031987;28;20540;-72
2023/10/15 08:25:21;;;;;;;1.23;0.70;;;12.70;97.00;;;;;;5041136;28;20191;-72
2023/10/15 08:27:50;;;;;;;1.00;0.70;;;12.70;97.00;;;;;;5043639;28;20207;-72
2023/10/15 08:30:18;;;;;;;3.50;1.10;;;12.70;96.90;;;;;;5042579;28;20655;-72
2023/10/15 08:32:47;;;;;;;3.10;0.90;;;12.80;96.80;;;;;;5039346;28;20223;-72
2023/10/15 08:35:14;;;;;;;1.83;0.70;;;12.70;96.70;;;;;;5049196;28;20266;-72
2023/10/15 08:37:42;;;;;;;1.17;0.80;;;12.70;96.80;;;;;;5049935;28;20278;-72
2023/10/15 08:40:15;;;;;;;2.23;0.93;;;12.80;96.70;;;;;;5043141;28;20220;-73
2023/10/15 08:42:48;;;;;;;1.00;0.87;;;12.80;96.70;;;;;;5039292;28;20220;-71
2023/10/15 08:45:21;;;;;;;2.00;1.00;;;12.80;96.70;;;;;;5047124;28;20682;-72
2023/10/15 08:47:50;;;;;;;1.70;0.87;;;12.80;96.60;;;;;;5050647;28;20601;-72
2023/10/15 08:50:20;;;;;;;2.13;1.00;;;12.80;96.60;;;;;;5043521;28;20276;-73
2023/10/15 08:52:49;;;;;;;1.37;0.60;;;12.80;96.40;;;;;;5045103;28;20647;-73
2023/10/15 08:55:22;;;;;;;1.13;0.80;;;12.90;96.30;;;;;;5045674;28;20647;-72
2023/10/15 08:57:54;;;;;;;2.47;1.33;;;12.90;96.20;;;;;;5079920;28;20666;-73
2023/10/15 09:00:30;;;;;;;0.80;0.80;;;12.90;96.10;;;;;;5043357;28;20207;-73
2023/10/15 09:03:00;;;;;;;1.17;0.80;;;12.80;96.40;;;;;;5046497;28;20286;-73
2023/10/15 09:05:30;;;;;;;2.23;0.70;;;12.90;96.10;;;;;;5046849;28;20279;-72
2023/10/15 09:08:04;;;;;;;1.30;0.90;;;12.90;96.10;;;;;;5046966;28;20217;-72
2023/10/15 09:10:31;;;;;;;2.13;0.87;;;12.90;95.90;;;;;;5044429;28;20214;-72
2023/10/15 09:12:59;;;;;;;0.93;0.77;;;12.90;95.80;;;;;;5047877;28;20305;-72
2023/10/15 09:15:29;;;;;;;0.77;0.63;;;13.00;95.90;;;;;;5046581;28;20196;-73
2023/10/15 09:17:57;;;;;;;1.17;0.90;;;13.00;95.80;;;;;;5046177;28;20253;-72
2023/10/15 09:20:27;;;;;;;1.60;0.80;;;13.00;95.50;;;;;;5046424;28;20211;-72
2023/10/15 09:22:57;;;;;;;1.10;0.87;;;13.00;95.40;;;;;;5041777;28;20203;-73
2023/10/15 09:25:25;;;;;;;0.63;0.60;;;13.00;95.50;;;;;;5047175;28;20239;-72
2023/10/15 09:27:55;;;;;;;1.80;0.90;;;13.00;95.70;;;;;;5047300;28;20205;-72
2023/10/15 09:30:23;;;;;;;2.13;1.10;;;13.00;95.80;;;;;;5041778;28;20220;-73
2023/10/15 09:32:56;;;;;;;1.10;0.90;;;13.00;95.90;;;;;;5048324;28;20199;-72
2023/10/15 09:35:24;;;;;;;3.53;1.17;;;13.00;96.10;;;;;;5047750;28;20215;-73
2023/10/15 09:37:53;;;;;;;1.63;1.30;;;13.00;96.10;;;;;;5043580;28;20246;-72
2023/10/15 09:40:23;;;;;;;2.57;1.10;;;13.00;96.10;;;;;;5079776;28;20199;-72
2023/10/15 09:42:53;;;;;;;1.23;1.10;;;13.00;96.10;;;;;;5040893;28;20303;-73
2023/10/15 09:45:23;;;;;;;1.83;1.00;;;13.10;96.30;;;;;;5046731;28;20284;-72
2023/10/15 09:47:57;;;;;;;1.90;1.10;;;13.20;96.20;;;;;;5082194;28;20227;-72
2023/10/15 09:50:27;;;;;;;1.40;1.10;;;13.20;96.10;;;;;;5044539;28;20230;-72
2023/10/15 09:53:00;;;;;;;1.70;0.87;;;13.30;96.00;;;;;;5049125;28;20208;-73
2023/10/15 09:55:31;;;;;;;1.37;0.90;;;13.30;95.90;;;;;;5049677;28;20679;-73
2023/10/15 09:58:01;;;;;;;1.83;1.13;;;13.40;95.60;;;;;;5043774;28;20207;-73
2023/10/15 10:00:47;;;;;;;2.37;1.10;;;13.40;95.40;;;;;;5082137;28;20537;-73
2023/10/15 10:03:39;;;;;;;1.23;1.00;;;13.60;94.60;;;;;;5046242;28;20204;-73
2023/10/15 10:06:22;;;;;;;3.80;0.87;;;14.10;94.60;;;;;;5035159;28;20657;-72
2023/10/15 10:09:16;;;;;;;1.53;0.97;;;14.90;93.60;;;;;;5038426;28;20197;-73
2023/10/15 10:11:55;;;;;;;1.53;0.97;;;15.10;93.10;;;;;;5043309;28;20273;-74
2023/10/15 10:14:51;;;;;;;3.63;1.20;;;15.60;92.90;;;;;;5077492;28;20293;-73
2023/10/15 10:17:21;;;;;;;1.77;1.07;;;15.80;92.00;;;;;;5058605;28;20294;-72
2023/10/15 10:19:52;;;;;;;1.90;0.80;;;15.60;92.00;;;;;;5048142;28;20232;-72
2023/10/15 10:22:24;;;;;;;2.57;1.23;;;15.50;92.20;;;;;;5052271;28;20240;-72
2023/10/15 10:24:51;;;;;;;1.90;1.03;;;15.20;92.60;;;;;;5047867;28;20206;-72
2023/10/15 10:27:19;;;;;;;1.83;1.30;;;15.00;93.00;;;;;;5047355;28;20221;-73
2023/10/15 10:29:51;;;;;;;2.07;1.67;;;14.80;93.40;;;;;;5052507;28;20271;-73
2023/10/15 10:32:19;;;;;;;3.47;1.33;;;14.70;93.70;;;;;;5050634;28;20217;-72
2023/10/15 10:35:07;;;;;;;3.33;1.30;;;14.60;94.00;;;;;;5052497;28;20388;-72
2023/10/15 10:37:36;;;;;;;2.20;1.10;;;14.50;94.10;;;;;;5051641;28;20206;-72
2023/10/15 10:40:03;;;;;;;3.87;1.20;;;14.40;94.20;;;;;;5051638;28;20190;-72
2023/10/15 10:42:30;;;;;;;1.97;1.33;;;14.40;94.20;;;;;;5035659;28;20622;-72
2023/10/15 10:44:57;;;;;;;2.73;0.93;;;14.30;94.20;;;;;;5050211;28;20205;-71
2023/10/15 10:47:29;;;;;;;1.73;1.23;;;14.30;94.30;;;;;;5051853;28;20297;-72
2023/10/15 10:49:58;;;;;;;3.07;1.20;;;14.20;94.40;;;;;;5075585;28;20235;-72
2023/10/15 10:52:34;;;;;;;1.33;0.90;;;14.10;94.30;;;;;;5048481;28;20310;-73
2023/10/15 10:55:34;;;;;;;2.10;1.10;;;14.00;94.30;;;;;;5044821;28;20204;-71
2023/10/15 10:58:05;;;;;;;3.53;1.43;;;14.00;93.90;;;;;;5049604;28;20247;-73
2023/10/15 11:00:35;;;;;;;2.10;1.33;;;13.90;93.80;;;;;;5051810;28;20196;-73
2023/10/15 11:03:06;;;;;;;3.13;1.27;;;13.80;93.70;;;;;;5044002;28;20308;-72
2023/10/15 11:05:34;;;;;;;2.30;0.83;;;13.70;93.50;;;;;;5045800;28;20649;-73
2023/10/15 11:08:03;;;;;;;3.90;0.90;;;13.60;93.50;;;;;;5040504;28;20229;-73
2023/10/15 11:10:32;;;;;;;2.40;1.10;;;13.60;93.50;;;;;;5046363;28;20216;-73
2023/10/15 11:12:59;;;;;;;2.33;1.00;;;13.60;93.50;;;;;;5053107;28;20331;-73
2023/10/15 11:15:27;;;;;;;2.77;1.10;;;13.60;93.50;;;;;;5049659;28;20203;-73
2023/10/15 11:17:57;;;;;;;4.90;1.13;;;13.60;93.60;;;;;;5046794;28;20786;-73
2023/10/15 11:20:27;;;;;;;5.93;1.60;;;13.60;93.50;;;;;;5083089;28;20277;-73
2023/10/15 11:22:54;;;;;;;1.27;1.00;;;13.60;93.60;;;;;;5049273;28;20206;-72
2023/10/15 11:25:23;;;;;;;3.13;1.17;;;13.60;93.70;;;;;;5051658;28;20554;-72
2023/10/15 11:27:52;;;;;;;1.53;1.13;;;13.60;93.70;;;;;;5037996;28;20282;-73
2023/10/15 11:30:20;;;;;;;1.97;1.27;;;13.60;93.50;;;;;;5047105;28;20217;-73
2023/10/15 11:32:48;;;;;;;3.47;1.60;;;13.60;93.50;;;;;;5044166;28;20213;-73
2023/10/15 11:35:16;;;;;;;2.80;1.40;;;13.70;93.50;;;;;;5048587;28;20198;-72
2023/10/15 11:37:50;;;;;;;3.17;1.30;;;13.60;93.30;;;;;;5065158;28;20205;-73
2023/10/15 11:40:36;;;;;;;2.90;1.90;;;13.60;93.30;;;;;;5041401;28;20194;-73
2023/10/15 11:43:18;;;;;;;5.30;2.10;;;13.70;93.40;;;;;;5048180;28;20190;-72
2023/10/15 11:45:47;;;;;;;1.90;1.30;;;13.70;93.20;;;;;;5079084;28;20648;-72
2023/10/15 11:48:34;;;;;;;2.17;1.20;;;13.70;93.00;;;;;;5038490;28;20677;-72
2023/10/15 11:51:05;;;;;;;3.03;1.37;;;13.80;92.90;;;;;;5044248;28;20236;-72
2023/10/15 11:53:33;;;;;;;5.33;1.80;;;13.70;92.40;;;;;;5045970;28;20220;-72
2023/10/15 11:56:06;;;;;;;4.73;1.50;;;13.80;92.10;;;;;;5046035;28;20197;-71
2023/10/15 11:58:48;;;;;;;3.20;1.37;;;13.70;91.70;;;;;;5047671;28;20288;-73
2023/10/15 12:01:54;;;;;;;5.47;1.20;;;13.70;91.80;;;;;;5046377;28;20279;-73
2023/10/15 12:04:42;;;;;;;3.13;1.27;;;13.70;91.10;;;;;;5075359;28;20674;-73
2023/10/15 12:07:25;;;;;;;2.80;1.50;;;13.70;91.10;;;;;;5038119;28;20572;-74
2023/10/15 12:13:55;;;;;;;2.93;1.23;;;13.80;91.00;;;;;;4978574;28;20229;-71
2023/10/15 12:16:23;;;;;;;2.70;1.30;;;13.80;90.80;;;;;;5049343;28;20193;-73
2023/10/15 12:18:57;;;;;;;1.70;0.90;;;13.80;90.60;;;;;;5047091;28;20198;-72
2023/10/15 12:26:07;;;;;;;1.47;1.07;;;13.80;90.20;;;;;;5007573;28;20270;-74
2023/10/15 12:28:43;;;;;;;2.80;1.07;;;14.50;90.80;;;;;;5045640;28;20204;-72
2023/10/15 12:31:12;;;;;;;2.23;1.03;;;13.80;89.30;;;;;;5048439;28;20221;-72
2023/10/15 12:33:40;;;;;;;1.67;1.23;;;13.80;88.80;;;;;;5046717;28;20258;-73
2023/10/15 12:36:09;;;;;;;3.03;1.30;;;13.80;88.70;;;;;;5076231;28;20613;-73
2023/10/15 12:38:39;;;;;;;2.83;1.43;;;13.80;88.70;;;;;;5076928;28;20296;-72
2023/10/15 12:41:06;;;;;;;1.27;0.90;;;13.90;88.80;;;;;;5049119;28;20557;-73
2023/10/15 12:43:33;;;;;;;1.83;1.07;;;13.90;89.00;;;;;;5041139;28;20650;-74
2023/10/15 12:46:00;;;;;;;4.00;1.17;;;14.00;89.10;;;;;;5046266;28;20205;-73
2023/10/15 12:48:29;;;;;;;1.73;0.87;;;14.00;88.70;;;;;;5049898;28;20209;-73
2023/10/15 12:50:56;;;;;;;2.40;0.90;;;14.00;88.30;;;;;;5070374;28;20296;-72
2023/10/15 12:53:24;;;;;;;5.13;1.67;;;14.10;88.40;;;;;;5046414;28;20192;-73
2023/10/15 12:55:51;;;;;;;2.03;1.33;;;14.10;87.30;;;;;;5048046;28;20203;-73
2023/10/15 12:58:19;;;;;;;2.90;1.50;;;14.10;87.60;;;;;;5081250;28;20208;-73
2023/10/15 13:00:48;;;;;;;2.50;1.10;;;14.10;87.40;;;;;;5043525;28;20217;-74
2023/10/15 13:03:17;;;;;;;3.17;1.70;;;14.10;87.60;;;;;;5049948;28;20213;-72
2023/10/15 13:05:46;;;;;;;2.13;1.33;;;14.10;87.40;;;;;;5047351;28;20657;-73
2023/10/15 13:08:13;;;;;;;1.37;0.70;;;14.10;87.40;;;;;;5045617;28;20328;-73
2023/10/15 13:10:41;;;;;;;0.90;0.70;;;13.90;90.00;;;;;;5076247;28;20255;-73
2023/10/15 13:13:08;;;;;;;0.73;0.70;;;13.60;90.90;;;;;;5044755;28;20215;-72